Doksany, Czech Republic

12:44 AM CET on February 10, 2016 (GMT +0100)
Prestavlky u Roudnice nad Labem | | Change Station
CLOSE
Current Station
Personal Weather Station
Location: ,
Elevation: 610 ft
Nearby Weather Stations

Elev 610 ft 50.40 °N, 14.19 °E | Updated 1 second ago

Partly Cloudy
Partly Cloudy
47.7 °F
Feels Like 46 °F
N
4.2
Wind Variable Wind from West
Gusts 4.9 mph

Today
High -- | Low -- °F
--% Chance of Precip.
Yesterday
High -- | Low -- °F
Precip. -- in
Pressure 29.21 in
Visibility 6.2 miles
Clouds Few 3000 ft
Windchill 46 °F
Dew Point 36 °F
Humidity 63%
Rainfall 0.00 in
Snow Depth Not available.
7:24 AM 5:10 PM
Waxing Crescent, 3% visible
METAR LKPR 092330Z 22017KT 9999 FEW030 07/03 Q0989 NOSIG
Pressure 29.21 in
Visibility 6.2 miles
Clouds Few 3000 ft
Windchill 46 °F
Dew Point 36 °F
Humidity 63%
Rainfall 0.00 in
Snow Depth Not available.
7:24 AM 5:10 PM
Waxing Crescent, 3% visible
METAR LKPR 092330Z 22017KT 9999 FEW030 07/03 Q0989 NOSIG

10-Day Weather Forecast

Almanac

Astronomy

Feb. 10, 2016 Rise Set
Actual Time
Civil Twilight
Nautical Twilight
Astronomical Twilight
Moon
Length of Visible Light
Length of Day
Tomorrow will be .
, % of the Moon is Illuminated

Today's Extremes

Country Highs Country Lows

Community

WunderPhotos

Upload Photos

1,891,744 photos uploaded!

WunderBlog® & News

Nearby

Air Quality

  Air Quality AQ Index Pollutant
Not available.

Snow Depth

Station Depth Elevation

Earthquake Activity

City Distance Mag. Time & Date
Minimum magnitude displayed is 2.5.

Coastal Water Temperatures

Place Temperature

Stations

Nearby Weather Stations

Station Location Temp. Windchill Dew Point Humidity Wind Precip. Elev Updated Type